Sunday, April 22, 2018, 5:46 PM EDT
Back to Local

KSFZ, Pawtucket, North Central State Airport

Location: Smithfield, RI, United States Lat: 41.917
Local Time: 5:46 PM EDT (21:46 GMT) Lon: -71.5
Time Zone: US/Eastern Elev: 439 ft

Show me the last for .
Show Coded

Time T Td Feel RH Dir Speed Gust Alt SLP Vis Weather Sky Remarks
2018-04-22 16:56 61 15 - 16 - - - 30.29 30.14 10 CLR None
2018-04-22 15:56 60 14 - 16 - - - 30.30 30.14 10 CLR None
2018-04-22 14:56 60 15 - 16 - - - 30.31 30.15 10 CLR None
2018-04-22 13:56 59 16 - 18 - - - 30.32 30.16 10 CLR 6-hr Min Temp (2pm): 45.0°F
6-hr Max Temp (2pm): 60.1°F
2018-04-22 12:56 58 18 - 20 - - - 30.33 30.18 10 CLR None
2018-04-22 11:56 56 17 - 21 - - - 30.35 30.19 10 CLR None
2018-04-22 10:56 54 16 - 21 - - - 30.35 30.19 10 CLR None
2018-04-22 09:56 52 18 - 25 - - - 30.36 30.20 10 CLR None
2018-04-22 08:56 50 20 - 30 - - - 30.36 30.20 10 CLR None
2018-04-22 07:56 45 19 - 35 - - - 30.36 30.20 10 CLR 6-hr Min Temp (8am): 30.9°F
6-hr Max Temp (8am): 45.0°F
2018-04-22 06:56 41 18 - 38 - - - 30.35 30.19 10 CLR None
2018-04-22 05:56 32 20 - 60 - - - 30.33 30.18 10 CLR None
2018-04-22 04:56 37 17 - 43 - - - 30.32 30.17 10 CLR None
2018-04-22 03:56 39 17 - 40 - - - 30.32 30.17 10 CLR None
2018-04-22 02:56 39 18 - 42 - - - 30.32 30.16 10 CLR None
2018-04-22 01:56 38 18 - 43 - - - 30.32 30.16 10 CLR 6-hr Min Temp (2am): 37.0°F
6-hr Max Temp (2am): 52.0°F
2018-04-22 00:56 41 17 - 37 - - - 30.32 30.16 10 CLR 24-hr Min Temp (1am): 34.0°F
24-hr Max Temp (1am): 59.0°F
2018-04-21 23:56 42 19 - 39 - - - 30.31 30.15 10 CLR None
2018-04-21 22:56 46 18 - 32 - - - 30.29 30.13 10 CLR None
2018-04-21 21:56 47 21 - 35 - - - 30.28 30.12 10 CLR None
2018-04-21 20:56 48 21 - 34 - - - 30.26 30.11 10 CLR None
2018-04-21 19:56 52 20 - 28 - - - 30.24 30.08 10 CLR 6-hr Min Temp (8pm): 52.0°F
6-hr Max Temp (8pm): 59.0°F
2018-04-21 18:56 55 20 - 25 - - - 30.20 30.05 10 CLR None
2018-04-21 17:56 57 19 - 22 - - - 30.20 30.04 10 CLR None

Support USWX by starting your Amazon purchase here.